Aviation Digital Data Service (ADDS)

Output produced by METARs form (2218 UTC 18 December 2014)
found at http://www.aviationweather.gov/adds/metars/
 
KCRQ 182153Z AUTO 26007KT 10SM OVC090 17/08 A3013 RMK AO2 SLP202 T01720078 TSNO
KCRQ 182053Z AUTO VRB04KT 10SM BKN041 BKN049 17/08 A3014 RMK AO2 SLP206 T01720083 58018 TSNO
KCRQ 181953Z AUTO 00000KT 10SM FEW030 SCT038 OVC048 17/09 A3016 RMK AO2 SLP211 T01670089 TSNO
KCRQ 181853Z AUTO 17003KT 10SM SCT034 BKN047 16/09 A3019 RMK AO2 SLP221 T01560089 TSNO
KCRQ 181720Z 1818/1918 VRB04KT P6SM VCSH SCT030 BKN050 
     FM182100 26008KT P6SM SCT030 BKN050 
     FM190100 VRB04KT P6SM SCT030 
     TEMPO 1908/1912 BKN025